createdAt,value
2022-11-07T00:03:39.049Z,78.83
2022-11-07T00:09:39.403Z,78.60
2022-11-07T00:12:27.847Z,78.39
2022-11-07T00:30:55.568Z,78.33
2022-11-07T00:33:38.404Z,78.25
2022-11-07T01:08:19.004Z,78.76
2022-11-07T01:11:20.404Z,78.84
2022-11-07T01:14:34.616Z,78.98
2022-11-07T01:18:05.432Z,79.24
2022-11-07T01:34:37.045Z,79.20
2022-11-07T01:51:24.691Z,79.40
2022-11-07T02:05:10.128Z,79.38
2022-11-07T02:30:29.171Z,79.52
2022-11-07T02:47:51.432Z,79.51
2022-11-07T03:16:18.289Z,79.29
2022-11-07T03:46:10.241Z,79.24
2022-11-07T03:54:16.978Z,79.34
2022-11-07T03:57:38.421Z,79.08
2022-11-07T04:22:41.453Z,79.01
2022-11-07T04:25:08.662Z,79.01
2022-11-07T04:27:44.311Z,79.30
2022-11-07T04:30:21.945Z,79.08
2022-11-07T04:32:51.385Z,78.89
2022-11-07T04:35:19.556Z,78.84
2022-11-07T04:37:47.251Z,79.07
2022-11-07T04:40:14.346Z,78.66
2022-11-07T04:42:47.354Z,78.54
2022-11-07T04:45:30.932Z,78.61
2022-11-07T04:48:04.270Z,78.23
2022-11-07T04:50:31.140Z,78.14
2022-11-07T04:56:44.261Z,78.28
2022-11-07T05:04:16.777Z,77.89
2022-11-07T05:06:49.394Z,77.98
2022-11-07T05:09:18.162Z,77.91
2022-11-07T05:11:46.173Z,77.95
2022-11-07T05:14:13.040Z,77.81
2022-11-07T05:16:40.859Z,77.67
2022-11-07T05:19:07.540Z,78.00
2022-11-07T05:21:34.248Z,77.61
2022-11-07T05:24:01.077Z,77.45
2022-11-07T05:26:33.943Z,77.78
2022-11-07T05:29:10.004Z,77.38
2022-11-07T05:31:36.693Z,77.40
2022-11-07T05:34:08.712Z,77.49
2022-11-07T05:36:39.643Z,77.55
2022-11-07T05:39:06.439Z,77.55
2022-11-07T05:41:35.615Z,77.36
2022-11-07T05:44:12.111Z,77.59
2022-11-07T05:46:47.846Z,77.45
2022-11-07T05:49:22.101Z,77.35
2022-11-07T05:51:48.856Z,77.56
2022-11-07T05:54:15.631Z,77.29
2022-11-07T05:56:44.191Z,77.13
2022-11-07T05:59:25.907Z,77.08
2022-11-07T06:04:46.288Z,77.19
2022-11-07T06:07:16.144Z,77.10
2022-11-07T06:09:42.896Z,77.30
2022-11-07T06:12:12.442Z,77.16
2022-11-07T06:14:45.171Z,77.01
2022-11-07T06:17:15.788Z,77.04
2022-11-07T06:19:42.610Z,77.11
2022-11-07T06:22:19.928Z,76.74
2022-11-07T06:27:43.849Z,77.27
2022-11-07T06:30:11.117Z,77.26
2022-11-07T06:32:39.482Z,76.95
2022-11-07T06:35:06.594Z,76.61
2022-11-07T06:37:35.834Z,76.89
2022-11-07T06:40:06.250Z,77.10
2022-11-07T06:42:35.643Z,77.10
2022-11-07T06:51:46.876Z,77.05
2022-11-07T06:54:24.028Z,76.83
2022-11-07T06:56:50.936Z,76.68
2022-11-07T06:59:25.723Z,76.75
2022-11-07T07:02:02.741Z,76.74
2022-11-07T07:04:30.009Z,76.69
2022-11-07T07:07:02.268Z,76.69
2022-11-07T07:13:42.809Z,76.52
2022-11-07T07:36:27.705Z,76.09
2022-11-07T07:39:00.323Z,76.05
2022-11-07T07:41:36.263Z,76.24
2022-11-07T07:44:08.403Z,75.87
2022-11-07T07:46:38.344Z,75.93
2022-11-07T07:49:14.321Z,75.82
2022-11-07T07:54:27.707Z,75.97
2022-11-07T07:57:06.423Z,75.87
2022-11-07T07:59:33.596Z,75.94
2022-11-07T08:02:11.731Z,76.02
2022-11-07T08:04:41.257Z,75.76
2022-11-07T08:07:11.291Z,76.07
2022-11-07T08:09:38.138Z,76.05
2022-11-07T08:12:10.816Z,75.80
2022-11-07T08:14:37.550Z,75.85
2022-11-07T08:17:04.440Z,75.99
2022-11-07T08:19:31.174Z,75.71
2022-11-07T08:22:01.120Z,75.50
2022-11-07T08:24:30.313Z,75.54
2022-11-07T08:26:57.169Z,75.81
2022-11-07T08:29:25.087Z,75.76
2022-11-07T08:31:56.492Z,75.71
2022-11-07T08:34:23.404Z,75.40
2022-11-07T08:36:53.048Z,75.51
2022-11-07T08:39:20.064Z,75.63
2022-11-07T08:41:47.980Z,75.47
2022-11-07T08:44:44.296Z,75.34
2022-11-07T08:47:18.699Z,75.15
2022-11-07T08:49:45.719Z,75.32
2022-11-07T08:52:12.434Z,74.93
2022-11-07T08:54:39.178Z,75.25
2022-11-07T08:57:05.957Z,75.26
2022-11-07T08:59:34.266Z,74.98
2022-11-07T09:02:44.708Z,75.11
2022-11-07T09:12:01.728Z,74.50
2022-11-07T09:14:28.916Z,74.69
2022-11-07T09:16:55.736Z,74.63
2022-11-07T09:19:25.078Z,74.42
2022-11-07T09:21:51.810Z,74.56
2022-11-07T09:24:18.600Z,74.32
2022-11-07T09:26:50.183Z,74.46
2022-11-07T09:29:16.968Z,74.36
2022-11-07T09:31:46.514Z,74.41
2022-11-07T09:34:16.202Z,74.19
2022-11-07T09:36:45.602Z,74.55
2022-11-07T09:39:12.452Z,74.42
2022-11-07T09:42:01.105Z,74.17
2022-11-07T09:45:02.903Z,74.39
2022-11-07T09:47:37.279Z,74.30
2022-11-07T09:50:13.873Z,74.30
2022-11-07T09:53:30.379Z,73.94
2022-11-07T09:56:45.929Z,74.34
2022-11-07T09:59:32.366Z,74.28
2022-11-07T10:01:59.307Z,74.00
2022-11-07T10:04:29.143Z,74.05
2022-11-07T10:07:10.872Z,73.70
2022-11-07T10:10:14.027Z,73.76
2022-11-07T10:13:05.392Z,73.46
2022-11-07T10:16:02.082Z,73.66
2022-11-07T10:19:04.734Z,73.20
2022-11-07T10:21:50.272Z,73.15
2022-11-07T10:24:30.885Z,73.29
2022-11-07T10:27:01.267Z,73.21
2022-11-07T10:29:47.987Z,73.26
2022-11-07T10:32:22.428Z,72.91
2022-11-07T10:35:08.445Z,72.67
2022-11-07T10:37:36.435Z,72.42
2022-11-07T10:40:11.904Z,72.26
2022-11-07T10:42:38.744Z,72.28
2022-11-07T10:45:12.280Z,71.75
2022-11-07T10:47:39.802Z,71.62
2022-11-07T10:50:18.927Z,71.57
2022-11-07T10:52:53.593Z,71.21
2022-11-07T10:55:21.083Z,70.90
2022-11-07T10:57:53.033Z,71.07
2022-11-07T11:00:29.531Z,70.88
2022-11-07T11:03:00.115Z,70.83
2022-11-07T11:05:42.330Z,70.59
2022-11-07T11:08:21.005Z,70.75
2022-11-07T11:10:48.921Z,70.27
2022-11-07T11:13:29.522Z,70.55
2022-11-07T11:16:05.537Z,70.08
2022-11-07T11:18:33.079Z,70.21
2022-11-07T11:21:06.596Z,70.33
2022-11-07T11:23:45.438Z,70.11
2022-11-07T11:26:35.789Z,69.84
2022-11-07T11:29:18.005Z,69.85
2022-11-07T11:31:56.643Z,69.60
2022-11-07T11:34:42.328Z,69.74
2022-11-07T11:37:18.233Z,69.42
2022-11-07T11:40:20.625Z,69.59
2022-11-07T11:43:20.036Z,69.01
2022-11-07T11:46:05.787Z,69.22
2022-11-07T11:48:43.801Z,68.76
2022-11-07T11:51:26.906Z,68.46
2022-11-07T11:54:01.817Z,68.33
2022-11-07T11:56:38.187Z,68.20
2022-11-07T11:59:09.492Z,68.23
2022-11-07T12:02:06.448Z,68.48
2022-11-07T12:04:51.500Z,68.33
2022-11-07T12:07:37.279Z,68.01
2022-11-07T12:10:24.165Z,68.21
2022-11-07T12:12:54.822Z,67.80
2022-11-07T12:15:31.387Z,67.33
2022-11-07T12:18:08.271Z,67.55
2022-11-07T12:20:48.502Z,67.15
2022-11-07T12:23:45.311Z,66.86
2022-11-07T12:26:23.431Z,66.73
2022-11-07T12:29:17.545Z,66.84
2022-11-07T12:31:56.369Z,66.55
2022-11-07T12:34:35.315Z,66.49
2022-11-07T12:37:26.506Z,66.67
2022-11-07T12:40:02.423Z,66.43
2022-11-07T12:42:41.076Z,66.68
2022-11-07T12:45:17.011Z,66.16
2022-11-07T12:48:00.362Z,66.29
2022-11-07T12:50:38.376Z,66.05
2022-11-07T12:53:11.919Z,66.30
2022-11-07T12:55:57.008Z,66.00
2022-11-07T12:58:26.692Z,66.08
2022-11-07T13:00:54.885Z,65.66
2022-11-07T13:03:52.190Z,65.97
2022-11-07T13:06:23.936Z,65.61
2022-11-07T13:09:14.984Z,65.88
2022-11-07T13:11:52.986Z,65.77
2022-11-07T13:14:25.988Z,65.83
2022-11-07T13:17:05.766Z,65.80
2022-11-07T13:19:34.989Z,66.09
2022-11-07T13:22:21.311Z,65.99
2022-11-07T13:25:13.455Z,66.24
2022-11-07T13:27:47.759Z,66.36
2022-11-07T13:30:18.516Z,66.39
2022-11-07T13:32:46.174Z,66.76
2022-11-07T13:35:25.296Z,67.02
2022-11-07T13:38:11.400Z,66.75
2022-11-07T13:40:40.338Z,67.19
2022-11-07T13:43:24.136Z,66.89
2022-11-07T13:45:55.740Z,66.95
2022-11-07T13:48:47.027Z,67.10
2022-11-07T13:51:33.690Z,67.33
2022-11-07T13:54:21.055Z,67.18
2022-11-07T13:56:52.201Z,67.62
2022-11-07T13:59:30.330Z,67.54
2022-11-07T14:01:59.397Z,67.55
2022-11-07T14:04:28.821Z,67.77
2022-11-07T14:06:57.908Z,68.05
2022-11-07T14:09:25.293Z,67.86
2022-11-07T14:11:53.382Z,68.11
2022-11-07T14:14:24.969Z,68.17
2022-11-07T14:16:56.136Z,67.85
2022-11-07T14:19:27.391Z,68.24
2022-11-07T14:21:55.744Z,68.29
2022-11-07T14:29:05.338Z,68.73
2022-11-07T14:31:36.840Z,68.58
2022-11-07T14:34:15.504Z,68.64
2022-11-07T14:36:59.869Z,69.04
2022-11-07T14:39:29.414Z,69.17
2022-11-07T14:41:57.354Z,68.98
2022-11-07T14:44:53.232Z,69.49
2022-11-07T14:47:22.678Z,69.62
2022-11-07T14:49:50.598Z,69.90
2022-11-07T14:52:18.493Z,70.07
2022-11-07T14:54:45.999Z,69.83
2022-11-07T14:57:13.428Z,70.28
2022-11-07T14:59:41.225Z,70.14
2022-11-07T15:02:08.051Z,70.53
2022-11-07T15:04:34.786Z,70.78
2022-11-07T15:07:20.475Z,70.57
2022-11-07T15:09:47.376Z,70.88
2022-11-07T15:12:38.484Z,71.12
2022-11-07T15:15:12.268Z,71.46
2022-11-07T15:17:45.583Z,71.16
2022-11-07T15:20:30.772Z,71.61
2022-11-07T15:22:58.710Z,71.61
2022-11-07T15:25:34.538Z,71.67
2022-11-07T15:28:24.750Z,71.73
2022-11-07T15:30:54.335Z,71.66
2022-11-07T15:33:21.685Z,71.62
2022-11-07T15:35:51.133Z,71.69
2022-11-07T15:38:20.653Z,71.80
2022-11-07T15:40:48.075Z,72.16
2022-11-07T15:43:14.819Z,71.89
2022-11-07T15:45:42.390Z,71.92
2022-11-07T15:48:15.019Z,72.09
2022-11-07T15:50:43.257Z,71.73
2022-11-07T15:53:21.683Z,72.12
2022-11-07T15:55:51.291Z,71.81
2022-11-07T15:58:18.787Z,72.16
2022-11-07T16:00:45.654Z,72.31
2022-11-07T16:03:15.467Z,72.42
2022-11-07T16:05:47.112Z,72.21
2022-11-07T16:08:17.950Z,72.33
2022-11-07T16:10:54.107Z,72.47
2022-11-07T16:13:20.857Z,72.37
2022-11-07T16:15:50.298Z,72.20
2022-11-07T16:18:19.790Z,72.22
2022-11-07T16:20:47.658Z,72.28
2022-11-07T16:23:14.938Z,72.10
2022-11-07T16:25:43.181Z,72.47
2022-11-07T16:28:22.911Z,72.43
2022-11-07T16:30:49.793Z,72.29
2022-11-07T16:33:17.039Z,72.37
2022-11-07T16:35:43.857Z,72.60
2022-11-07T16:38:19.070Z,72.56
2022-11-07T16:40:46.445Z,72.33
2022-11-07T16:43:13.609Z,72.62
2022-11-07T16:45:45.631Z,72.39
2022-11-07T16:48:25.506Z,72.35
2022-11-07T16:50:52.901Z,72.62
2022-11-07T16:53:20.212Z,72.54
2022-11-07T16:55:53.253Z,72.39
2022-11-07T16:58:29.120Z,72.54
2022-11-07T17:00:58.087Z,72.21
2022-11-07T17:03:26.454Z,72.28
2022-11-07T17:05:54.990Z,72.34
2022-11-07T17:08:23.960Z,72.31
2022-11-07T17:10:51.044Z,72.70
2022-11-07T17:13:18.022Z,72.39
2022-11-07T17:15:44.811Z,72.55
2022-11-07T17:18:22.505Z,72.94
2022-11-07T17:20:51.672Z,72.56
2022-11-07T17:23:23.969Z,73.12
2022-11-07T17:25:54.288Z,73.04
2022-11-07T17:28:21.572Z,73.05
2022-11-07T17:30:48.300Z,73.35
2022-11-07T17:33:14.995Z,73.21
2022-11-07T17:35:41.836Z,73.52
2022-11-07T17:38:16.495Z,73.42
2022-11-07T17:40:43.664Z,73.67
2022-11-07T17:43:10.498Z,73.74
2022-11-07T17:45:37.630Z,73.91
2022-11-07T17:48:04.381Z,73.88
2022-11-07T17:50:31.119Z,73.90
2022-11-07T17:52:57.826Z,73.94
2022-11-07T17:55:25.626Z,73.73
2022-11-07T17:57:52.454Z,74.11
2022-11-07T18:00:21.794Z,74.07
2022-11-07T18:02:50.169Z,74.04
2022-11-07T18:05:19.330Z,74.25
2022-11-07T18:07:46.502Z,73.97
2022-11-07T18:10:15.478Z,74.30
2022-11-07T18:12:42.685Z,74.33
2022-11-07T18:15:12.865Z,74.47
2022-11-07T18:17:40.628Z,74.34
2022-11-07T18:20:09.370Z,74.25
2022-11-07T18:22:37.344Z,74.07
2022-11-07T18:25:08.143Z,74.32
2022-11-07T18:27:35.342Z,74.45
2022-11-07T18:30:03.115Z,74.21
2022-11-07T18:32:34.621Z,74.45
2022-11-07T18:35:04.521Z,74.57
2022-11-07T18:37:31.325Z,74.52
2022-11-07T18:39:58.829Z,74.49
2022-11-07T18:42:25.588Z,74.20
2022-11-07T18:44:52.261Z,74.58
2022-11-07T18:47:21.196Z,74.22
2022-11-07T18:49:51.484Z,74.24
2022-11-07T18:52:20.911Z,74.27
2022-11-07T18:54:47.559Z,74.49
2022-11-07T18:57:14.870Z,74.72
2022-11-07T18:59:41.520Z,74.71
2022-11-07T19:02:09.061Z,74.67
2022-11-07T19:04:35.779Z,74.90
2022-11-07T19:07:02.509Z,74.55
2022-11-07T19:09:30.893Z,75.01
2022-11-07T19:11:58.823Z,75.08
2022-11-07T19:14:26.646Z,74.80
2022-11-07T19:16:53.397Z,75.09
2022-11-07T19:19:20.119Z,74.97
2022-11-07T19:21:46.777Z,75.12
2022-11-07T19:24:13.482Z,75.01
2022-11-07T19:26:40.568Z,75.10
2022-11-07T19:29:12.760Z,74.94
2022-11-07T19:31:39.495Z,75.26
2022-11-07T19:34:06.412Z,75.03
2022-11-07T19:36:33.504Z,75.25
2022-11-07T19:39:00.378Z,75.03
2022-11-07T19:41:27.058Z,74.98
2022-11-07T19:43:53.788Z,74.91
2022-11-07T19:46:22.270Z,75.11
2022-11-07T19:48:49.941Z,75.01
2022-11-07T19:51:21.983Z,75.19
2022-11-07T19:53:58.339Z,75.02
2022-11-07T19:56:27.503Z,75.31
2022-11-07T19:58:54.756Z,75.35
2022-11-07T20:01:25.004Z,75.32
2022-11-07T20:03:52.761Z,75.32
2022-11-07T20:06:25.972Z,75.15
2022-11-07T20:08:52.807Z,75.34
2022-11-07T20:11:22.573Z,75.21
2022-11-07T20:13:49.287Z,75.13
2022-11-07T20:16:16.126Z,75.26
2022-11-07T20:18:45.382Z,75.40
2022-11-07T20:21:18.396Z,75.60
2022-11-07T20:23:46.032Z,75.45
2022-11-07T20:26:15.328Z,75.31
2022-11-07T20:28:42.276Z,75.69
2022-11-07T20:31:10.498Z,75.41
2022-11-07T20:33:37.395Z,75.27
2022-11-07T20:36:06.932Z,75.47
2022-11-07T20:38:33.931Z,75.68
2022-11-07T20:41:02.266Z,75.29
2022-11-07T22:54:15.657Z,76.21
2022-11-07T23:26:39.860Z,76.65
